createdAt,value
2018-05-15T00:00:04.854Z,0.00
2018-05-15T00:01:04.734Z,0.00
2018-05-15T00:02:04.810Z,0.00
2018-05-15T00:03:04.816Z,0.00
2018-05-15T00:04:04.804Z,0.00
2018-05-15T00:05:04.863Z,0.00
2018-05-15T00:06:04.873Z,0.00
2018-05-15T00:07:04.842Z,0.00
2018-05-15T00:08:04.878Z,0.00
2018-05-15T00:09:04.779Z,0.00
2018-05-15T00:10:04.842Z,0.00
2018-05-15T00:11:04.778Z,0.00
2018-05-15T00:12:04.847Z,0.00
2018-05-15T00:13:04.790Z,0.00
2018-05-15T00:14:04.846Z,0.00
2018-05-15T00:15:04.848Z,0.00
2018-05-15T00:16:04.854Z,0.00
2018-05-15T00:17:04.779Z,0.00
2018-05-15T00:18:04.787Z,0.00
2018-05-15T00:19:04.820Z,0.00
2018-05-15T00:20:04.767Z,0.00
2018-05-15T00:21:04.884Z,0.00
2018-05-15T00:22:04.898Z,0.00
2018-05-15T00:23:04.816Z,0.00
2018-05-15T00:24:04.873Z,0.00
2018-05-15T00:25:04.851Z,0.00
2018-05-15T00:26:04.758Z,0.00
2018-05-15T00:27:04.813Z,0.00
2018-05-15T00:28:04.822Z,0.00
2018-05-15T00:29:04.799Z,0.00
2018-05-15T00:30:04.854Z,0.00
2018-05-15T00:31:04.854Z,0.00
2018-05-15T00:32:04.860Z,0.00
2018-05-15T00:33:04.884Z,0.00
2018-05-15T00:34:04.758Z,0.00
2018-05-15T00:35:04.831Z,0.00
2018-05-15T00:36:04.838Z,0.00
2018-05-15T00:37:04.813Z,0.00
2018-05-15T00:38:04.779Z,0.00
2018-05-15T00:39:04.826Z,0.00
2018-05-15T00:40:04.835Z,0.00
2018-05-15T00:41:04.765Z,0.00
2018-05-15T00:42:04.791Z,0.00
2018-05-15T00:43:04.893Z,0.00
2018-05-15T00:44:04.903Z,0.00
2018-05-15T00:45:04.841Z,0.00
2018-05-15T00:46:04.864Z,0.00
2018-05-15T00:47:04.829Z,0.00
2018-05-15T00:48:04.862Z,0.00
2018-05-15T00:49:04.870Z,0.00
2018-05-15T00:50:04.755Z,0.00
2018-05-15T00:51:04.869Z,0.00
2018-05-15T00:52:04.804Z,0.00
2018-05-15T00:53:04.894Z,0.00
2018-05-15T00:54:04.835Z,0.00
2018-05-15T00:55:04.880Z,0.00
2018-05-15T00:56:04.888Z,0.00
2018-05-15T00:57:04.881Z,0.00
2018-05-15T00:58:04.876Z,0.00
2018-05-15T00:59:04.895Z,0.00
2018-05-15T01:00:04.898Z,0.00
2018-05-15T01:01:04.903Z,0.00
2018-05-15T01:02:04.771Z,0.00
2018-05-15T01:03:04.913Z,0.00
2018-05-15T01:04:04.898Z,0.00
2018-05-15T01:05:04.904Z,0.00
2018-05-15T01:06:04.957Z,0.00
2018-05-15T01:07:04.912Z,0.00
2018-05-15T01:08:04.876Z,0.00
2018-05-15T01:09:04.841Z,0.00
2018-05-15T01:10:04.800Z,0.00
2018-05-15T01:11:04.803Z,0.00
2018-05-15T01:12:04.879Z,0.00
2018-05-15T01:13:04.818Z,0.00
2018-05-15T01:14:04.862Z,0.00
2018-05-15T01:15:04.899Z,0.00
2018-05-15T01:16:04.880Z,0.00
2018-05-15T01:17:04.914Z,0.00
2018-05-15T01:18:04.854Z,0.00
2018-05-15T01:19:04.887Z,0.00
2018-05-15T01:20:04.824Z,0.00
2018-05-15T01:21:04.826Z,0.00
2018-05-15T01:22:04.889Z,0.00
2018-05-15T01:23:04.820Z,0.00
2018-05-15T01:24:04.889Z,0.00
2018-05-15T01:25:04.829Z,0.00
2018-05-15T01:26:04.863Z,0.00
2018-05-15T01:27:04.827Z,0.00
2018-05-15T01:28:04.912Z,0.00
2018-05-15T01:29:04.884Z,0.00
2018-05-15T01:30:04.797Z,0.00
2018-05-15T01:31:04.764Z,0.00
2018-05-15T01:32:04.887Z,0.00
2018-05-15T01:33:04.880Z,0.00
2018-05-15T01:34:04.816Z,0.00
2018-05-15T01:35:04.844Z,0.00
2018-05-15T01:36:04.804Z,0.00
2018-05-15T01:37:04.844Z,0.00
2018-05-15T01:38:04.891Z,0.00
2018-05-15T01:39:04.888Z,0.00
2018-05-15T01:40:04.861Z,0.00
2018-05-15T01:41:04.865Z,0.00
2018-05-15T01:42:04.802Z,0.00
2018-05-15T01:43:04.838Z,0.00
2018-05-15T01:44:04.767Z,0.00
2018-05-15T01:45:04.891Z,0.00
2018-05-15T01:46:04.762Z,0.00
2018-05-15T01:47:04.843Z,0.00
2018-05-15T01:48:04.891Z,0.00
2018-05-15T01:49:04.901Z,0.00
2018-05-15T01:50:04.822Z,0.00
2018-05-15T01:51:04.904Z,0.00
2018-05-15T01:52:04.902Z,0.00
2018-05-15T01:53:04.828Z,0.00
2018-05-15T01:54:04.827Z,0.00
2018-05-15T01:55:04.827Z,0.00
2018-05-15T01:56:04.900Z,0.00
2018-05-15T01:57:04.848Z,0.00
2018-05-15T01:58:04.782Z,0.00
2018-05-15T01:59:04.903Z,0.00
2018-05-15T02:00:04.841Z,0.00
2018-05-15T02:01:04.775Z,0.00
2018-05-15T02:02:04.851Z,0.00
2018-05-15T02:03:04.901Z,0.00
2018-05-15T02:04:04.780Z,0.00
2018-05-15T02:05:04.846Z,0.00
2018-05-15T02:06:04.845Z,0.00
2018-05-15T02:07:04.902Z,0.00
2018-05-15T02:08:04.852Z,0.00
2018-05-15T02:09:04.916Z,0.00
2018-05-15T02:10:04.918Z,0.00
2018-05-15T02:11:04.928Z,0.00
2018-05-15T02:12:04.938Z,0.00
2018-05-15T02:13:04.923Z,0.00
2018-05-15T02:14:04.819Z,0.00
2018-05-15T02:15:04.953Z,0.00
2018-05-15T02:16:04.982Z,0.00
2018-05-15T02:17:04.912Z,0.00
2018-05-15T02:18:04.921Z,0.00
2018-05-15T02:19:04.890Z,0.00
2018-05-15T02:20:04.965Z,0.00
2018-05-15T02:21:04.953Z,0.00
2018-05-15T02:22:05.003Z,0.00
2018-05-15T02:23:04.850Z,0.00
2018-05-15T02:24:04.927Z,0.00
2018-05-15T02:25:04.906Z,0.00
2018-05-15T02:26:04.902Z,0.00
2018-05-15T02:27:04.928Z,0.00
2018-05-15T02:28:04.849Z,0.00
2018-05-15T02:29:04.962Z,0.00
2018-05-15T02:30:04.949Z,0.00
2018-05-15T02:31:04.918Z,0.00
2018-05-15T02:32:04.874Z,0.00
2018-05-15T02:33:04.871Z,0.00
2018-05-15T02:34:04.867Z,0.00
2018-05-15T02:35:04.934Z,0.00
2018-05-15T02:36:04.943Z,0.00
2018-05-15T02:37:04.905Z,0.00
2018-05-15T02:38:04.943Z,0.00
2018-05-15T02:39:04.917Z,0.00
2018-05-15T02:40:04.895Z,0.00
2018-05-15T02:41:04.972Z,0.00
2018-05-15T02:42:04.922Z,0.00
2018-05-15T02:43:04.907Z,0.00
2018-05-15T02:44:04.901Z,0.00
2018-05-15T02:45:04.975Z,0.00
2018-05-15T02:46:04.913Z,0.00
2018-05-15T02:47:04.964Z,0.00
2018-05-15T02:48:04.956Z,0.00
2018-05-15T02:49:04.911Z,0.00
2018-05-15T02:50:04.972Z,0.00
2018-05-15T02:51:04.960Z,0.00
2018-05-15T02:52:04.871Z,0.00
2018-05-15T02:53:04.785Z,0.00
2018-05-15T02:54:04.946Z,0.00
2018-05-15T02:55:04.949Z,0.00
2018-05-15T02:56:04.902Z,0.00
2018-05-15T02:57:04.948Z,0.00
2018-05-15T02:58:04.928Z,0.00
2018-05-15T02:59:04.990Z,0.00
2018-05-15T03:00:04.890Z,0.00
2018-05-15T03:01:04.921Z,0.00
2018-05-15T03:02:04.912Z,0.00
2018-05-15T03:03:04.971Z,0.00
2018-05-15T03:04:04.995Z,0.00
2018-05-15T03:05:04.985Z,0.00
2018-05-15T03:06:05.003Z,0.00
2018-05-15T03:07:04.913Z,0.00
2018-05-15T03:08:04.959Z,0.00
2018-05-15T03:09:04.991Z,0.00
2018-05-15T03:10:04.981Z,0.00
2018-05-15T03:11:04.931Z,0.00
2018-05-15T03:12:04.899Z,0.00
2018-05-15T03:13:04.958Z,0.00
2018-05-15T03:14:04.916Z,0.00
2018-05-15T03:15:04.937Z,0.00
2018-05-15T03:16:04.935Z,0.00
2018-05-15T03:17:04.909Z,0.00
2018-05-15T03:18:04.869Z,0.00
2018-05-15T03:19:04.899Z,0.00
2018-05-15T03:20:04.957Z,0.00
2018-05-15T03:21:04.967Z,0.00
2018-05-15T03:22:04.918Z,0.00
2018-05-15T03:23:04.897Z,0.00
2018-05-15T03:24:04.963Z,0.00
2018-05-15T03:25:04.898Z,0.00
2018-05-15T03:26:04.966Z,0.00
2018-05-15T03:27:04.971Z,0.00
2018-05-15T03:28:04.902Z,0.00
2018-05-15T03:29:04.973Z,0.00
2018-05-15T03:30:04.912Z,0.00
2018-05-15T03:31:04.905Z,0.00
2018-05-15T03:32:04.971Z,0.00
2018-05-15T03:33:04.908Z,0.00
2018-05-15T03:34:04.911Z,0.00
2018-05-15T03:35:04.979Z,0.00
2018-05-15T03:36:04.995Z,0.00
2018-05-15T03:37:04.993Z,0.00
2018-05-15T03:38:04.910Z,0.00
2018-05-15T03:39:04.935Z,0.00
2018-05-15T03:40:04.980Z,0.00
2018-05-15T03:41:04.916Z,0.00
2018-05-15T03:42:04.913Z,0.00
2018-05-15T03:43:04.979Z,0.00
2018-05-15T03:44:04.976Z,0.00
2018-05-15T03:45:04.981Z,0.00
2018-05-15T03:46:04.980Z,0.00
2018-05-15T03:47:05.009Z,0.00
2018-05-15T03:48:04.984Z,0.00
2018-05-15T03:49:04.906Z,0.00
2018-05-15T03:50:05.009Z,0.00
2018-05-15T03:51:04.986Z,0.00
2018-05-15T03:52:04.953Z,0.00
2018-05-15T03:53:05.009Z,0.00
2018-05-15T03:54:05.002Z,0.00
2018-05-15T03:55:04.985Z,0.00
2018-05-15T03:56:04.945Z,0.00
2018-05-15T03:57:04.986Z,0.00
2018-05-15T03:58:04.886Z,1.00
2018-05-15T03:59:05.008Z,1.00
2018-05-15T04:00:04.986Z,1.00
2018-05-15T04:01:04.991Z,1.00
2018-05-15T04:02:04.925Z,1.00
2018-05-15T04:03:04.986Z,1.00
2018-05-15T04:04:04.967Z,1.00
2018-05-15T04:05:04.926Z,1.00
2018-05-15T04:06:04.958Z,1.00
2018-05-15T04:07:04.890Z,1.00
2018-05-15T04:08:05.012Z,1.00
2018-05-15T04:09:04.917Z,1.00
2018-05-15T04:10:04.916Z,1.00
2018-05-15T04:11:05.183Z,1.00
2018-05-15T04:12:05.016Z,1.00
2018-05-15T04:13:05.029Z,2.00
2018-05-15T04:14:04.955Z,2.00
2018-05-15T04:15:04.962Z,2.00
2018-05-15T04:16:04.964Z,2.00
2018-05-15T04:17:04.923Z,2.00
2018-05-15T04:18:04.905Z,2.00
2018-05-15T04:19:04.934Z,2.00
2018-05-15T04:20:04.901Z,2.00
2018-05-15T04:21:04.954Z,2.00
2018-05-15T04:22:04.926Z,2.00
2018-05-15T04:23:04.984Z,2.00
2018-05-15T04:24:04.963Z,2.00
2018-05-15T04:25:04.867Z,2.00
2018-05-15T04:26:04.937Z,2.00
2018-05-15T04:27:04.938Z,2.00
2018-05-15T04:28:04.909Z,2.00
2018-05-15T04:29:04.939Z,2.00
2018-05-15T04:30:04.943Z,2.00
2018-05-15T04:31:04.957Z,3.00
2018-05-15T04:32:05.012Z,3.00
2018-05-15T04:33:04.942Z,3.00
2018-05-15T04:34:04.945Z,4.00
2018-05-15T04:35:04.990Z,4.00
2018-05-15T04:36:05.007Z,5.00
2018-05-15T04:37:04.946Z,5.00
2018-05-15T04:38:05.013Z,6.00
2018-05-15T04:39:04.990Z,7.00
2018-05-15T04:40:04.922Z,7.00
2018-05-15T04:41:04.917Z,8.00
2018-05-15T04:42:04.982Z,9.00
2018-05-15T04:43:05.033Z,9.00
2018-05-15T04:44:04.937Z,10.00
2018-05-15T04:45:04.940Z,11.00
2018-05-15T04:46:05.055Z,11.00
2018-05-15T04:47:05.052Z,12.00
2018-05-15T04:48:05.055Z,12.00
2018-05-15T04:49:05.018Z,12.00
2018-05-15T04:50:05.045Z,12.00
2018-05-15T04:51:04.998Z,12.00
2018-05-15T04:52:04.977Z,12.00
2018-05-15T04:53:05.023Z,12.00
2018-05-15T04:54:05.001Z,12.00
2018-05-15T04:55:05.045Z,12.00
2018-05-15T04:56:04.926Z,12.00
2018-05-15T04:57:05.021Z,12.00
2018-05-15T04:58:04.931Z,11.00
2018-05-15T04:59:04.926Z,11.00
2018-05-15T05:00:04.897Z,11.00
2018-05-15T05:01:05.018Z,11.00
2018-05-15T05:02:05.017Z,10.00
2018-05-15T05:03:04.933Z,10.00
2018-05-15T05:04:05.027Z,10.00
2018-05-15T05:05:04.950Z,9.00
2018-05-15T05:06:04.933Z,9.00
2018-05-15T05:07:04.956Z,9.00
2018-05-15T05:08:05.041Z,9.00
2018-05-15T05:09:04.966Z,9.00
2018-05-15T05:10:04.963Z,9.00
2018-05-15T05:11:05.041Z,9.00
2018-05-15T05:12:05.035Z,9.00
2018-05-15T05:13:05.035Z,9.00
2018-05-15T05:14:05.042Z,9.00
2018-05-15T05:15:04.929Z,9.00
2018-05-15T05:16:04.986Z,9.00
2018-05-15T05:17:04.970Z,9.00
2018-05-15T05:18:04.920Z,9.00
2018-05-15T05:19:05.036Z,9.00
2018-05-15T05:20:04.961Z,9.00
2018-05-15T05:21:05.103Z,9.00
2018-05-15T05:22:05.041Z,9.00
2018-05-15T05:23:05.019Z,9.00
2018-05-15T05:24:05.043Z,8.00
2018-05-15T05:25:05.081Z,8.00
2018-05-15T05:26:04.968Z,8.00
2018-05-15T05:27:05.110Z,8.00
2018-05-15T05:28:05.073Z,9.00
2018-05-15T05:29:04.965Z,9.00
2018-05-15T05:30:04.951Z,9.00
2018-05-15T05:31:04.992Z,10.00
2018-05-15T05:32:04.951Z,10.00
2018-05-15T05:33:05.043Z,10.00
2018-05-15T05:34:05.050Z,10.00
2018-05-15T05:35:05.004Z,10.00
2018-05-15T05:36:05.038Z,10.00
2018-05-15T05:37:04.953Z,10.00
2018-05-15T05:38:04.916Z,10.00
2018-05-15T05:39:05.039Z,14.00
2018-05-15T05:40:04.990Z,21.00
2018-05-15T05:41:04.951Z,24.00
2018-05-15T05:42:04.982Z,25.00
2018-05-15T05:43:04.989Z,26.00
2018-05-15T05:44:04.928Z,25.00
2018-05-15T05:45:04.927Z,25.00
2018-05-15T05:46:04.973Z,26.00
2018-05-15T05:47:05.011Z,25.00
2018-05-15T05:48:05.011Z,26.00
2018-05-15T05:49:05.070Z,26.00
2018-05-15T05:50:05.060Z,26.00
2018-05-15T05:51:05.073Z,27.00
2018-05-15T05:52:05.140Z,28.00
2018-05-15T05:53:04.998Z,29.00
2018-05-15T05:54:05.063Z,30.00
2018-05-15T05:55:04.996Z,30.00
2018-05-15T05:56:05.064Z,30.00
2018-05-15T05:57:05.062Z,30.00
2018-05-15T05:58:05.095Z,31.00
2018-05-15T05:59:05.082Z,31.00
2018-05-15T06:00:04.988Z,31.00
2018-05-15T06:01:05.082Z,31.00
2018-05-15T06:02:04.989Z,32.00
2018-05-15T06:03:05.087Z,32.00
2018-05-15T06:04:05.042Z,32.00
2018-05-15T06:05:05.091Z,33.00
2018-05-15T06:06:05.048Z,33.00
2018-05-15T06:07:05.034Z,33.00
2018-05-15T06:08:05.101Z,34.00
2018-05-15T06:09:05.069Z,34.00
2018-05-15T06:10:04.981Z,34.00
2018-05-15T06:11:05.097Z,34.00
2018-05-15T06:12:04.974Z,34.00
2018-05-15T06:13:05.023Z,34.00
2018-05-15T06:14:05.040Z,34.00
2018-05-15T06:15:05.076Z,35.00
2018-05-15T06:16:05.107Z,35.00
2018-05-15T06:17:05.099Z,35.00
2018-05-15T06:18:05.108Z,35.00
2018-05-15T06:19:05.107Z,35.00
2018-05-15T06:20:05.017Z,35.00
2018-05-15T06:21:05.174Z,36.00
2018-05-15T06:22:05.015Z,36.00
2018-05-15T06:23:04.983Z,36.00
2018-05-15T06:24:05.068Z,37.00
2018-05-15T06:25:05.071Z,37.00
2018-05-15T06:26:05.059Z,37.00
2018-05-15T06:27:04.989Z,38.00
2018-05-15T06:28:05.077Z,38.00
2018-05-15T06:29:04.991Z,39.00
2018-05-15T06:30:05.002Z,39.00
2018-05-15T06:31:05.006Z,40.00
2018-05-15T06:32:04.989Z,40.00
2018-05-15T06:33:04.990Z,40.00
2018-05-15T06:34:04.992Z,41.00
2018-05-15T06:35:04.996Z,41.00
2018-05-15T06:36:05.075Z,42.00
2018-05-15T06:37:05.081Z,42.00
2018-05-15T06:38:04.979Z,42.00
2018-05-15T06:39:05.087Z,43.00
2018-05-15T06:40:05.090Z,43.00
2018-05-15T06:41:05.025Z,44.00
2018-05-15T06:42:05.095Z,44.00
2018-05-15T06:43:05.031Z,44.00
2018-05-15T06:44:05.027Z,45.00
2018-05-15T06:45:05.160Z,45.00
2018-05-15T06:46:05.031Z,45.00
2018-05-15T06:47:05.095Z,46.00
2018-05-15T06:48:05.139Z,46.00
2018-05-15T06:49:05.109Z,46.00
2018-05-15T06:50:05.053Z,46.00
2018-05-15T06:54:05.008Z,48.00
2018-05-15T06:55:05.098Z,49.00
2018-05-15T06:56:05.084Z,49.00
2018-05-15T06:57:05.078Z,49.00
2018-05-15T06:58:05.071Z,50.00
2018-05-15T06:59:05.063Z,50.00
2018-05-15T07:00:05.040Z,51.00
2018-05-15T07:01:05.101Z,51.00
2018-05-15T07:02:04.972Z,51.00
2018-05-15T07:03:04.983Z,52.00
2018-05-15T07:04:05.013Z,52.00
2018-05-15T07:05:05.100Z,52.00
2018-05-15T07:06:05.046Z,52.00
2018-05-15T07:07:04.980Z,53.00
2018-05-15T07:08:05.054Z,53.00
2018-05-15T07:09:05.017Z,53.00
2018-05-15T07:10:05.041Z,54.00
2018-05-15T07:11:05.102Z,55.00
2018-05-15T07:12:05.099Z,55.00
2018-05-15T07:13:05.105Z,56.00
2018-05-15T07:14:05.148Z,56.00
2018-05-15T07:15:05.108Z,56.00
2018-05-15T07:16:05.102Z,57.00
2018-05-15T07:17:05.099Z,57.00
2018-05-15T07:18:05.051Z,56.00
2018-05-15T07:19:05.050Z,50.00
2018-05-15T07:20:05.144Z,56.00
2018-05-15T07:21:05.136Z,59.00
2018-05-15T07:22:05.143Z,60.00
2018-05-15T07:23:05.134Z,59.00
2018-05-15T07:24:05.073Z,60.00
2018-05-15T07:25:05.141Z,61.00
2018-05-15T07:26:05.105Z,61.00
2018-05-15T07:27:05.029Z,61.00
2018-05-15T07:28:05.159Z,62.00
2018-05-15T07:29:05.081Z,63.00
2018-05-15T07:30:05.152Z,63.00
2018-05-15T07:31:05.124Z,63.00
2018-05-15T07:32:05.092Z,63.00
2018-05-15T07:33:05.131Z,63.00
2018-05-15T07:34:05.105Z,64.00
2018-05-15T07:35:05.128Z,64.00
2018-05-15T07:36:05.106Z,64.00
2018-05-15T07:37:05.129Z,64.00
2018-05-15T07:38:05.129Z,65.00
2018-05-15T07:39:05.034Z,66.00
2018-05-15T07:40:05.066Z,66.00
2018-05-15T07:41:05.065Z,67.00
2018-05-15T07:42:05.132Z,67.00
2018-05-15T07:43:05.065Z,67.00
2018-05-15T07:44:05.155Z,67.00
2018-05-15T07:45:05.142Z,68.00
2018-05-15T07:46:05.067Z,69.00
2018-05-15T07:47:05.068Z,69.00
2018-05-15T07:48:05.144Z,70.00
2018-05-15T07:49:05.090Z,70.00
2018-05-15T07:50:05.107Z,70.00
2018-05-15T07:51:05.172Z,71.00
2018-05-15T07:52:05.036Z,71.00
2018-05-15T07:53:05.098Z,72.00
2018-05-15T07:54:05.106Z,71.00
2018-05-15T07:55:05.107Z,72.00
2018-05-15T07:56:05.079Z,72.00
2018-05-15T07:57:05.115Z,72.00
2018-05-15T07:58:05.140Z,73.00
2018-05-15T07:59:05.166Z,73.00
2018-05-15T08:00:05.152Z,73.00
2018-05-15T08:01:05.077Z,71.00
2018-05-15T08:02:05.180Z,67.00
2018-05-15T08:03:05.150Z,74.00
2018-05-15T08:04:05.147Z,74.00
2018-05-15T08:05:05.080Z,65.00
2018-05-15T08:06:05.103Z,70.00
2018-05-15T08:07:05.042Z,76.00
2018-05-15T08:08:05.152Z,76.00
2018-05-15T08:09:05.150Z,80.00
2018-05-15T08:10:05.098Z,79.00
2018-05-15T08:11:05.086Z,79.00
2018-05-15T08:12:05.150Z,79.00
2018-05-15T08:13:05.151Z,80.00
2018-05-15T08:14:05.151Z,80.00
2018-05-15T08:15:05.086Z,80.00
2018-05-15T08:16:05.155Z,80.00
2018-05-15T08:17:05.155Z,80.00
2018-05-15T08:18:05.102Z,78.00
2018-05-15T08:19:05.169Z,76.00
2018-05-15T08:20:05.125Z,77.00
2018-05-15T08:21:05.136Z,81.00
2018-05-15T08:22:05.077Z,81.00
2018-05-15T08:23:05.163Z,81.00
2018-05-15T08:24:05.101Z,84.00
2018-05-15T08:25:05.156Z,77.00
2018-05-15T08:26:05.125Z,83.00
2018-05-15T08:27:05.175Z,85.00
2018-05-15T08:28:05.139Z,86.00
2018-05-15T08:29:05.132Z,87.00
2018-05-15T08:30:05.055Z,88.00
2018-05-15T08:31:05.141Z,74.00
2018-05-15T08:32:05.099Z,90.00
2018-05-15T08:33:05.094Z,90.00
2018-05-15T08:34:05.057Z,91.00
2018-05-15T08:35:05.117Z,90.00
2018-05-15T08:36:05.031Z,89.00
2018-05-15T08:37:05.091Z,87.00
2018-05-15T08:38:05.149Z,88.00
2018-05-15T08:39:05.097Z,88.00
2018-05-15T08:40:05.067Z,86.00
2018-05-15T08:41:05.102Z,87.00
2018-05-15T08:42:05.167Z,88.00
2018-05-15T08:43:05.159Z,88.00
2018-05-15T08:44:05.123Z,85.00
2018-05-15T08:45:05.102Z,88.00
2018-05-15T08:46:05.075Z,87.00
2018-05-15T08:47:05.167Z,90.00
2018-05-15T08:48:05.079Z,90.00
2018-05-15T08:49:05.163Z,91.00
2018-05-15T08:50:05.080Z,92.00
2018-05-15T08:51:05.148Z,92.00
2018-05-15T08:52:05.179Z,90.00
2018-05-15T08:53:05.152Z,90.00
2018-05-15T08:54:05.104Z,92.00
2018-05-15T08:55:05.175Z,91.00
2018-05-15T08:56:05.086Z,90.00
2018-05-15T08:57:05.181Z,91.00
2018-05-15T08:58:05.178Z,90.00
2018-05-15T08:59:05.082Z,86.00
2018-05-15T09:00:05.207Z,90.00
2018-05-15T09:01:05.202Z,94.00
2018-05-15T09:02:05.189Z,93.00
2018-05-15T09:03:05.146Z,92.00
2018-05-15T09:04:05.087Z,93.00
2018-05-15T09:05:05.223Z,88.00
2018-05-15T09:06:05.141Z,92.00
2018-05-15T09:07:05.160Z,92.00
2018-05-15T09:08:05.163Z,95.00
2018-05-15T09:09:05.108Z,99.00
2018-05-15T09:10:05.163Z,99.00
2018-05-15T09:11:05.183Z,99.00
2018-05-15T09:12:05.087Z,97.00
2018-05-15T09:13:05.207Z,99.00
2018-05-15T09:14:05.211Z,99.00
2018-05-15T09:15:05.218Z,99.00
2018-05-15T09:16:05.206Z,99.00
2018-05-15T09:17:05.197Z,97.00
2018-05-15T09:18:05.101Z,99.00
2018-05-15T09:19:05.147Z,99.00
2018-05-15T09:20:05.104Z,99.00
2018-05-15T09:21:05.145Z,99.00
2018-05-15T09:22:05.186Z,99.00
2018-05-15T09:23:05.123Z,99.00
2018-05-15T09:24:05.186Z,99.00
2018-05-15T09:25:05.189Z,99.00
2018-05-15T09:26:05.187Z,99.00
2018-05-15T09:27:05.229Z,99.00
2018-05-15T09:28:05.133Z,99.00
2018-05-15T09:29:05.235Z,99.00
2018-05-15T09:30:05.101Z,99.00
2018-05-15T09:31:05.074Z,99.00
2018-05-15T09:32:05.136Z,99.00
2018-05-15T09:33:05.109Z,99.00
2018-05-15T09:34:05.068Z,99.00
2018-05-15T09:35:05.091Z,99.00
2018-05-15T09:36:05.202Z,99.00
2018-05-15T09:37:05.109Z,99.00
2018-05-15T09:38:05.102Z,99.00
2018-05-15T09:39:05.196Z,99.00
2018-05-15T09:40:05.208Z,99.00
2018-05-15T09:41:05.209Z,99.00
2018-05-15T09:42:05.147Z,99.00
2018-05-15T09:43:05.212Z,99.00
2018-05-15T09:44:05.147Z,99.00
2018-05-15T09:45:05.141Z,99.00
2018-05-15T09:46:05.250Z,99.00
2018-05-15T09:47:05.208Z,99.00
2018-05-15T09:48:05.212Z,99.00
2018-05-15T09:49:05.213Z,99.00
2018-05-15T09:50:05.176Z,99.00
2018-05-15T09:51:05.196Z,99.00
2018-05-15T09:52:05.137Z,99.00
2018-05-15T09:53:05.229Z,99.00
2018-05-15T09:54:05.237Z,54.00
2018-05-15T09:55:05.186Z,99.00
2018-05-15T09:56:05.136Z,99.00
2018-05-15T09:57:05.196Z,99.00
2018-05-15T09:58:05.255Z,99.00
2018-05-15T09:59:05.190Z,99.00
2018-05-15T10:00:05.191Z,99.00
2018-05-15T10:01:05.160Z,99.00
2018-05-15T10:02:05.237Z,99.00
2018-05-15T10:03:05.195Z,99.00
2018-05-15T10:04:05.182Z,99.00
2018-05-15T10:05:05.223Z,99.00
2018-05-15T10:06:05.251Z,99.00
2018-05-15T10:07:05.182Z,99.00
2018-05-15T10:08:05.362Z,99.00
2018-05-15T10:09:05.190Z,99.00
2018-05-15T10:10:05.198Z,99.00
2018-05-15T10:11:05.230Z,99.00
2018-05-15T10:12:05.183Z,99.00
2018-05-15T10:13:05.225Z,99.00
2018-05-15T10:14:05.297Z,99.00
2018-05-15T10:15:05.191Z,99.00
2018-05-15T10:16:05.266Z,99.00
2018-05-15T10:17:05.198Z,99.00
2018-05-15T10:18:05.161Z,99.00
2018-05-15T10:19:05.257Z,99.00
2018-05-15T10:20:05.323Z,99.00
2018-05-15T10:21:05.141Z,99.00
2018-05-15T10:22:05.159Z,99.00
2018-05-15T10:23:05.185Z,99.00
2018-05-15T10:24:05.131Z,99.00
2018-05-15T10:25:05.196Z,99.00
2018-05-15T10:26:05.219Z,99.00
2018-05-15T10:27:05.116Z,99.00
2018-05-15T10:28:05.188Z,99.00
2018-05-15T10:29:05.175Z,99.00
2018-05-15T10:30:05.333Z,88.00
2018-05-15T10:31:05.212Z,77.00
2018-05-15T10:32:05.193Z,95.00
2018-05-15T10:33:05.139Z,39.00
2018-05-15T10:34:05.270Z,35.00
2018-05-15T10:35:05.263Z,99.00
2018-05-15T10:36:05.283Z,99.00
2018-05-15T10:37:05.291Z,99.00
2018-05-15T10:38:05.222Z,99.00
2018-05-15T10:39:05.322Z,99.00
2018-05-15T10:40:05.144Z,99.00
2018-05-15T10:41:05.149Z,99.00
2018-05-15T10:42:05.239Z,90.00
2018-05-15T10:43:05.241Z,91.00
2018-05-15T10:44:05.250Z,46.00
2018-05-15T10:45:05.232Z,77.00
2018-05-15T10:46:05.246Z,52.00
2018-05-15T10:47:05.237Z,52.00
2018-05-15T10:48:05.189Z,34.00
2018-05-15T10:49:05.242Z,32.00
2018-05-15T10:50:05.252Z,31.00
2018-05-15T10:51:05.197Z,34.00
2018-05-15T10:52:05.251Z,39.00
2018-05-15T10:53:05.186Z,39.00
2018-05-15T10:54:05.151Z,40.00
2018-05-15T10:55:05.256Z,97.00
2018-05-15T10:56:05.188Z,90.00
2018-05-15T10:57:05.259Z,39.00
2018-05-15T10:58:05.230Z,40.00
2018-05-15T10:59:05.194Z,41.00
2018-05-15T11:00:05.214Z,38.00
2018-05-15T11:01:05.193Z,40.00
2018-05-15T11:02:05.253Z,99.00
2018-05-15T11:03:05.150Z,81.00
2018-05-15T11:04:05.249Z,38.00
2018-05-15T11:05:05.194Z,90.00
2018-05-15T11:06:05.241Z,99.00
2018-05-15T11:07:05.215Z,99.00
2018-05-15T11:08:05.217Z,99.00
2018-05-15T11:09:05.199Z,99.00
2018-05-15T11:10:05.202Z,99.00
2018-05-15T11:11:05.228Z,35.00
2018-05-15T11:12:05.237Z,34.00
2018-05-15T11:13:05.307Z,34.00
2018-05-15T11:14:05.299Z,38.00
2018-05-15T11:15:05.163Z,99.00
2018-05-15T11:16:05.290Z,99.00
2018-05-15T11:17:05.188Z,99.00
2018-05-15T11:18:05.242Z,99.00
2018-05-15T11:19:05.283Z,40.00
2018-05-15T11:20:05.245Z,35.00
2018-05-15T11:21:05.295Z,34.00
2018-05-15T11:22:05.291Z,35.00
2018-05-15T11:23:05.303Z,38.00
2018-05-15T11:24:05.273Z,42.00
2018-05-15T11:25:05.293Z,50.00
2018-05-15T11:26:05.184Z,41.00
2018-05-15T11:27:05.211Z,41.00
2018-05-15T11:28:05.253Z,82.00
2018-05-15T11:29:05.298Z,90.00
2018-05-15T11:30:05.298Z,76.00
2018-05-15T11:31:05.236Z,57.00
2018-05-15T11:32:05.296Z,39.00
2018-05-15T11:33:05.231Z,99.00
2018-05-15T11:34:05.240Z,38.00
2018-05-15T11:35:05.248Z,39.00
2018-05-15T11:36:05.368Z,99.00
2018-05-15T11:37:05.301Z,53.00
2018-05-15T11:38:05.288Z,46.00
2018-05-15T11:39:05.314Z,50.00
2018-05-15T11:40:05.246Z,38.00
2018-05-15T11:41:05.215Z,34.00
2018-05-15T11:42:05.290Z,32.00
2018-05-15T11:43:05.214Z,34.00
2018-05-15T11:44:05.287Z,34.00
2018-05-15T11:45:05.292Z,33.00
2018-05-15T11:46:05.241Z,99.00
2018-05-15T11:47:05.288Z,99.00
2018-05-15T11:48:05.819Z,93.00
2018-05-15T11:49:06.467Z,99.00
2018-05-15T11:50:06.638Z,99.00
2018-05-15T11:51:06.117Z,99.00
2018-05-15T11:52:06.076Z,99.00
2018-05-15T11:53:05.954Z,99.00
2018-05-15T11:54:05.249Z,99.00
2018-05-15T11:55:05.231Z,99.00
2018-05-15T11:56:05.291Z,84.00
2018-05-15T11:57:05.265Z,66.00
2018-05-15T11:58:05.249Z,99.00
2018-05-15T11:59:05.307Z,94.00
2018-05-15T12:00:05.400Z,86.00
2018-05-15T12:01:05.287Z,96.00
2018-05-15T12:02:05.290Z,45.00
2018-05-15T12:03:05.289Z,37.00
2018-05-15T12:04:05.261Z,36.00
2018-05-15T12:05:05.291Z,36.00
2018-05-15T12:06:05.287Z,38.00
2018-05-15T12:07:05.288Z,79.00
2018-05-15T12:08:05.356Z,85.00
2018-05-15T12:09:05.397Z,85.00
2018-05-15T12:10:05.190Z,90.00
2018-05-15T12:11:05.207Z,88.00
2018-05-15T12:12:05.211Z,91.00
2018-05-15T12:13:05.343Z,86.00
2018-05-15T12:14:05.342Z,86.00
2018-05-15T12:15:05.310Z,88.00
2018-05-15T12:16:05.390Z,81.00
2018-05-15T12:17:05.355Z,69.00
2018-05-15T12:18:05.261Z,52.00
2018-05-15T12:19:05.434Z,40.00
2018-05-15T12:20:05.209Z,40.00
2018-05-15T12:21:05.334Z,40.00
2018-05-15T12:22:05.288Z,45.00
2018-05-15T12:23:05.325Z,73.00
2018-05-15T12:24:05.283Z,33.00
2018-05-15T12:25:05.312Z,29.00
2018-05-15T12:26:05.332Z,26.00
2018-05-15T12:27:05.346Z,23.00
2018-05-15T12:28:05.407Z,21.00
2018-05-15T12:29:05.241Z,19.00
2018-05-15T12:30:05.285Z,18.00
2018-05-15T12:31:05.319Z,17.00
2018-05-15T12:32:05.318Z,17.00
2018-05-15T12:33:05.215Z,17.00
2018-05-15T12:34:05.252Z,17.00
2018-05-15T12:35:05.250Z,17.00
2018-05-15T12:36:05.253Z,18.00
2018-05-15T12:37:05.252Z,19.00
2018-05-15T12:38:05.254Z,20.00
2018-05-15T12:39:05.254Z,22.00
2018-05-15T12:40:05.256Z,23.00
2018-05-15T12:41:05.341Z,24.00
2018-05-15T12:42:05.558Z,25.00
2018-05-15T12:43:05.320Z,26.00
2018-05-15T12:44:05.261Z,27.00
2018-05-15T12:45:05.334Z,29.00
2018-05-15T12:46:05.256Z,31.00
2018-05-15T12:47:05.327Z,33.00
2018-05-15T12:48:05.483Z,36.00
2018-05-15T12:49:05.330Z,41.00
2018-05-15T12:50:05.329Z,99.00
2018-05-15T12:51:05.309Z,72.00
2018-05-15T12:52:05.292Z,61.00
2018-05-15T12:53:05.312Z,46.00
2018-05-15T12:54:05.297Z,48.00
2018-05-15T12:55:05.283Z,52.00
2018-05-15T12:56:05.221Z,39.00
2018-05-15T12:57:05.211Z,38.00
2018-05-15T12:58:05.230Z,42.00
2018-05-15T12:59:05.266Z,44.00
2018-05-15T13:00:05.229Z,46.00
2018-05-15T13:01:05.236Z,89.00
2018-05-15T13:02:05.302Z,91.00
2018-05-15T13:03:05.227Z,90.00
2018-05-15T13:04:05.269Z,90.00
2018-05-15T13:05:05.246Z,90.00